createdAt,value
2023-05-11T00:00:26.319Z,0.00
2023-05-11T00:01:26.312Z,0.00
2023-05-11T00:02:26.329Z,0.00
2023-05-11T00:03:29.489Z,0.00
2023-05-11T00:04:29.280Z,0.00
2023-05-11T00:05:26.224Z,0.00
2023-05-11T00:06:26.210Z,0.00
2023-05-11T00:07:26.227Z,0.00
2023-05-11T00:08:26.179Z,0.00
2023-05-11T00:09:26.170Z,0.00
2023-05-11T00:10:26.172Z,0.00
2023-05-11T00:11:26.137Z,0.00
2023-05-11T00:12:26.167Z,0.00
2023-05-11T00:13:26.109Z,0.00
2023-05-11T00:14:26.104Z,0.00
2023-05-11T00:15:26.088Z,0.00
2023-05-11T00:16:26.210Z,0.00
2023-05-11T00:17:26.077Z,0.00
2023-05-11T00:18:26.115Z,0.00
2023-05-11T00:19:26.035Z,0.00
2023-05-11T00:20:26.027Z,0.00
2023-05-11T00:21:26.033Z,0.00
2023-05-11T00:22:25.991Z,0.00
2023-05-11T00:23:28.978Z,0.00
2023-05-11T00:24:28.972Z,0.00
2023-05-11T00:25:25.979Z,0.00
2023-05-11T00:26:25.965Z,0.00
2023-05-11T00:27:25.991Z,0.00
2023-05-11T00:28:26.009Z,0.00
2023-05-11T00:29:25.993Z,0.00
2023-05-11T00:30:25.941Z,0.00
2023-05-11T00:31:27.484Z,0.00
2023-05-11T00:32:25.910Z,0.00
2023-05-11T00:33:25.836Z,0.00
2023-05-11T00:34:25.821Z,0.00
2023-05-11T00:35:25.847Z,0.00
2023-05-11T00:36:25.805Z,0.00
2023-05-11T00:37:26.230Z,0.00
2023-05-11T00:38:25.778Z,0.00
2023-05-11T00:39:25.759Z,0.00
2023-05-11T00:40:25.763Z,0.00
2023-05-11T00:41:25.781Z,0.00
2023-05-11T00:42:25.722Z,0.00
2023-05-11T00:43:28.694Z,0.00
2023-05-11T00:44:28.683Z,0.00
2023-05-11T00:45:25.697Z,0.00
2023-05-11T00:46:25.723Z,0.00
2023-05-11T00:47:25.657Z,0.00
2023-05-11T00:48:25.632Z,0.00
2023-05-11T00:49:25.614Z,0.00
2023-05-11T00:50:25.604Z,0.00
2023-05-11T00:51:25.609Z,0.00
2023-05-11T00:52:25.604Z,0.00
2023-05-11T00:53:25.561Z,0.00
2023-05-11T00:54:25.556Z,0.00
2023-05-11T00:55:25.524Z,0.00
2023-05-11T00:56:25.526Z,0.00
2023-05-11T00:57:25.538Z,0.00
2023-05-11T00:58:25.490Z,0.00
2023-05-11T00:59:25.485Z,0.00
2023-05-11T01:00:25.467Z,0.00
2023-05-11T01:01:25.596Z,0.00
2023-05-11T01:02:25.569Z,0.00
2023-05-11T01:03:28.512Z,0.00
2023-05-11T01:04:28.416Z,0.00
2023-05-11T01:05:25.393Z,0.00
2023-05-11T01:06:25.388Z,0.00
2023-05-11T01:07:25.400Z,0.00
2023-05-11T01:08:25.360Z,0.00
2023-05-11T01:09:25.393Z,0.00
2023-05-11T01:10:25.331Z,0.00
2023-05-11T01:11:25.326Z,0.00
2023-05-11T01:12:25.335Z,0.00
2023-05-11T01:13:25.284Z,0.00
2023-05-11T01:14:25.278Z,0.00
2023-05-11T01:15:25.257Z,0.00
2023-05-11T01:16:25.337Z,0.00
2023-05-11T01:17:25.242Z,0.00
2023-05-11T01:18:25.276Z,0.00
2023-05-11T01:19:25.215Z,0.00
2023-05-11T01:20:25.195Z,0.00
2023-05-11T01:21:25.179Z,0.00
2023-05-11T01:22:25.222Z,0.00
2023-05-11T01:23:28.164Z,0.00
2023-05-11T01:24:28.140Z,0.00
2023-05-11T01:25:25.229Z,0.00
2023-05-11T01:26:25.110Z,0.00
2023-05-11T01:27:25.092Z,0.00
2023-05-11T01:28:25.085Z,0.00
2023-05-11T01:29:25.062Z,0.00
2023-05-11T01:30:25.056Z,0.00
2023-05-11T01:31:25.127Z,0.00
2023-05-11T01:32:25.057Z,0.00
2023-05-11T01:33:25.006Z,0.00
2023-05-11T01:34:24.996Z,0.00
2023-05-11T01:35:24.990Z,0.00
2023-05-11T01:36:25.003Z,0.00
2023-05-11T01:37:24.945Z,0.00
2023-05-11T01:38:24.938Z,0.00
2023-05-11T01:39:24.948Z,0.00
2023-05-11T01:40:24.913Z,0.00
2023-05-11T01:41:24.890Z,0.00
2023-05-11T01:42:24.879Z,0.00
2023-05-11T01:43:27.859Z,0.00
2023-05-11T01:44:27.893Z,0.00
2023-05-11T01:45:24.829Z,0.00
2023-05-11T01:46:24.880Z,0.00
2023-05-11T01:47:24.861Z,0.00
2023-05-11T01:48:24.790Z,0.00
2023-05-11T01:49:24.783Z,0.00
2023-05-11T01:50:24.776Z,0.00
2023-05-11T01:51:24.775Z,0.00
2023-05-11T01:52:24.767Z,0.00
2023-05-11T01:53:24.718Z,0.00
2023-05-11T01:54:24.701Z,0.00
2023-05-11T01:55:24.696Z,0.00
2023-05-11T01:56:24.714Z,0.00
2023-05-11T01:57:24.665Z,0.00
2023-05-11T01:58:24.646Z,0.00
2023-05-11T01:59:24.628Z,0.00
2023-05-11T02:00:24.620Z,0.00
2023-05-11T02:01:24.657Z,0.00
2023-05-11T02:02:24.648Z,0.00
2023-05-11T02:03:27.723Z,0.00
2023-05-11T02:04:27.554Z,0.00
2023-05-11T02:05:25.043Z,0.00
2023-05-11T02:06:24.526Z,0.00
2023-05-11T02:07:24.514Z,0.00
2023-05-11T02:08:24.526Z,0.00
2023-05-11T02:09:24.479Z,0.00
2023-05-11T02:10:24.474Z,0.00
2023-05-11T02:11:24.464Z,0.00
2023-05-11T02:12:24.443Z,0.00
2023-05-11T02:13:24.458Z,0.00
2023-05-11T02:14:24.413Z,0.00
2023-05-11T02:15:24.402Z,0.00
2023-05-11T02:16:24.539Z,0.00
2023-05-11T02:17:24.530Z,0.00
2023-05-11T02:18:24.411Z,0.00
2023-05-11T02:19:24.344Z,0.00
2023-05-11T02:20:24.325Z,0.00
2023-05-11T02:21:24.315Z,0.00
2023-05-11T02:22:24.289Z,0.00
2023-05-11T02:23:27.323Z,0.00
2023-05-11T02:24:27.273Z,0.00
2023-05-11T02:25:24.260Z,0.00
2023-05-11T02:26:24.240Z,0.00
2023-05-11T02:27:24.231Z,0.00
2023-05-11T02:28:24.236Z,0.00
2023-05-11T02:29:24.207Z,0.00
2023-05-11T02:30:24.186Z,0.00
2023-05-11T02:31:24.192Z,0.00
2023-05-11T02:32:24.246Z,0.00
2023-05-11T02:33:24.199Z,0.00
2023-05-11T02:34:24.128Z,0.00
2023-05-11T02:35:24.108Z,0.00
2023-05-11T02:36:24.100Z,0.00
2023-05-11T02:37:24.089Z,0.00
2023-05-11T02:38:24.070Z,0.00
2023-05-11T02:39:24.087Z,0.00
2023-05-11T02:40:24.038Z,0.00
2023-05-11T02:41:24.058Z,0.00
2023-05-11T02:42:24.088Z,0.00
2023-05-11T02:43:26.997Z,0.00
2023-05-11T02:44:26.991Z,0.00
2023-05-11T02:45:23.971Z,0.00
2023-05-11T02:46:24.064Z,0.00
2023-05-11T02:47:23.994Z,0.00
2023-05-11T02:48:23.951Z,0.00
2023-05-11T02:49:23.922Z,0.00
2023-05-11T02:50:23.906Z,0.00
2023-05-11T02:51:23.886Z,0.00
2023-05-11T02:52:23.878Z,0.00
2023-05-11T02:53:23.885Z,0.00
2023-05-11T02:54:23.864Z,0.00
2023-05-11T02:55:23.829Z,0.00
2023-05-11T02:56:23.808Z,0.00
2023-05-11T02:57:23.802Z,0.00
2023-05-11T02:58:23.862Z,0.00
2023-05-11T02:59:23.791Z,0.00
2023-05-11T03:00:23.819Z,0.00
2023-05-11T03:01:23.862Z,0.00
2023-05-11T03:02:23.897Z,0.00
2023-05-11T03:03:26.788Z,0.00
2023-05-11T03:04:26.797Z,0.00
2023-05-11T03:05:23.681Z,0.00
2023-05-11T03:06:23.666Z,4.00
2023-05-11T03:07:23.653Z,0.00
2023-05-11T03:08:23.635Z,0.00
2023-05-11T03:09:23.658Z,0.00
2023-05-11T03:10:23.637Z,4.00
2023-05-11T03:11:23.612Z,4.00
2023-05-11T03:12:23.603Z,4.00
2023-05-11T03:13:23.573Z,0.00
2023-05-11T03:14:23.599Z,4.00
2023-05-11T03:15:23.535Z,4.00
2023-05-11T03:16:23.540Z,4.00
2023-05-11T03:17:23.541Z,4.00
2023-05-11T03:18:23.533Z,4.00
2023-05-11T03:19:23.478Z,8.00
2023-05-11T03:20:23.501Z,4.00
2023-05-11T03:21:23.445Z,8.00
2023-05-11T03:22:23.439Z,8.00
2023-05-11T03:23:26.424Z,8.00
2023-05-11T03:24:26.406Z,8.00
2023-05-11T03:25:23.434Z,12.00
2023-05-11T03:26:23.378Z,12.00
2023-05-11T03:27:23.366Z,12.00
2023-05-11T03:28:23.357Z,12.00
2023-05-11T03:29:23.341Z,16.00
2023-05-11T03:30:23.374Z,16.00
2023-05-11T03:31:23.329Z,16.00
2023-05-11T03:32:23.335Z,16.00
2023-05-11T03:33:23.289Z,20.00
2023-05-11T03:34:23.268Z,24.00
2023-05-11T03:35:23.256Z,24.00
2023-05-11T03:36:23.298Z,24.00
2023-05-11T03:37:23.234Z,28.00
2023-05-11T03:38:23.221Z,32.00
2023-05-11T03:39:23.201Z,32.00
2023-05-11T03:40:23.184Z,36.00
2023-05-11T03:41:23.177Z,36.00
2023-05-11T03:42:23.197Z,40.00
2023-05-11T03:43:26.142Z,40.00
2023-05-11T03:44:26.127Z,48.00
2023-05-11T03:45:23.111Z,52.00
2023-05-11T03:46:23.199Z,56.00
2023-05-11T03:47:23.129Z,60.00
2023-05-11T03:48:23.123Z,64.00
2023-05-11T03:49:23.054Z,68.00
2023-05-11T03:50:23.046Z,72.00
2023-05-11T03:51:23.030Z,76.00
2023-05-11T03:52:23.020Z,84.00
2023-05-11T03:53:23.003Z,88.00
2023-05-11T03:54:23.027Z,92.00
2023-05-11T03:55:22.978Z,96.00
2023-05-11T03:56:22.949Z,100.00
2023-05-11T03:57:22.939Z,104.00
2023-05-11T03:58:22.976Z,104.00
2023-05-11T03:59:22.912Z,112.00
2023-05-11T04:00:22.895Z,116.00
2023-05-11T04:01:22.880Z,120.00
2023-05-11T04:02:23.020Z,120.00
2023-05-11T04:03:26.162Z,124.00
2023-05-11T04:04:25.945Z,128.00
2023-05-11T04:05:22.829Z,136.00
2023-05-11T04:06:22.810Z,140.00
2023-05-11T04:07:22.808Z,144.00
2023-05-11T04:08:22.783Z,152.00
2023-05-11T04:09:22.777Z,160.00
2023-05-11T04:10:22.794Z,164.00
2023-05-11T04:11:22.748Z,176.00
2023-05-11T04:12:22.730Z,184.00
2023-05-11T04:13:22.709Z,192.00
2023-05-11T04:14:22.777Z,200.00
2023-05-11T04:15:22.686Z,208.00
2023-05-11T04:16:22.743Z,208.00
2023-05-11T04:17:22.660Z,216.00
2023-05-11T04:18:22.661Z,224.00
2023-05-11T04:19:22.629Z,232.00
2023-05-11T04:20:22.665Z,240.00
2023-05-11T04:21:22.620Z,240.00
2023-05-11T04:22:22.645Z,248.00
2023-05-11T04:23:25.582Z,260.00
2023-05-11T04:24:25.563Z,276.00
2023-05-11T04:25:22.561Z,288.00
2023-05-11T04:26:22.523Z,296.00
2023-05-11T04:27:22.515Z,308.00
2023-05-11T04:28:22.527Z,320.00
2023-05-11T04:29:22.493Z,332.00
2023-05-11T04:30:22.468Z,348.00
2023-05-11T04:31:22.502Z,364.00
2023-05-11T04:32:22.482Z,376.00
2023-05-11T04:33:22.480Z,392.00
2023-05-11T04:34:22.425Z,412.00
2023-05-11T04:35:22.410Z,420.00
2023-05-11T04:36:22.388Z,420.00
2023-05-11T04:37:22.401Z,424.00
2023-05-11T04:38:22.383Z,432.00
2023-05-11T04:39:22.373Z,444.00
2023-05-11T04:40:22.332Z,460.00
2023-05-11T04:41:22.355Z,468.00
2023-05-11T04:42:22.322Z,472.00
2023-05-11T04:43:25.359Z,472.00
2023-05-11T04:44:25.298Z,476.00
2023-05-11T04:45:22.273Z,476.00
2023-05-11T04:46:22.314Z,492.00
2023-05-11T04:47:22.260Z,500.00
2023-05-11T04:48:22.237Z,516.00
2023-05-11T04:49:22.254Z,536.00
2023-05-11T04:50:22.198Z,548.00
2023-05-11T04:51:22.189Z,560.00
2023-05-11T04:52:22.172Z,576.00
2023-05-11T04:53:22.165Z,596.00
2023-05-11T04:54:22.173Z,608.00
2023-05-11T04:55:22.165Z,624.00
2023-05-11T04:56:22.145Z,644.00
2023-05-11T04:57:22.117Z,664.00
2023-05-11T04:58:22.120Z,676.00
2023-05-11T04:59:22.111Z,680.00
2023-05-11T05:00:22.351Z,684.00
2023-05-11T05:01:22.105Z,692.00
2023-05-11T05:02:22.066Z,692.00
2023-05-11T05:03:25.045Z,696.00
2023-05-11T05:04:25.011Z,696.00
2023-05-11T05:05:22.044Z,712.00
2023-05-11T05:06:21.988Z,728.00
2023-05-11T05:07:21.969Z,756.00
2023-05-11T05:08:21.957Z,788.00
2023-05-11T05:09:21.944Z,816.00
2023-05-11T05:10:21.913Z,856.00
2023-05-11T05:11:21.963Z,892.00
2023-05-11T05:12:21.897Z,916.00
2023-05-11T05:13:21.877Z,936.00
2023-05-11T05:14:21.865Z,972.00
2023-05-11T05:15:21.855Z,1012.00
2023-05-11T05:16:21.933Z,1056.00
2023-05-11T05:17:21.852Z,1092.00
2023-05-11T05:18:21.845Z,1100.00
2023-05-11T05:19:21.793Z,1104.00
2023-05-11T05:20:21.792Z,1120.00
2023-05-11T05:21:21.778Z,1148.00
2023-05-11T05:22:21.813Z,1152.00
2023-05-11T05:23:24.730Z,1152.00
2023-05-11T05:24:24.727Z,1184.00
2023-05-11T05:25:21.715Z,1236.00
2023-05-11T05:26:21.736Z,1276.00
2023-05-11T05:27:21.684Z,1304.00
2023-05-11T05:28:21.692Z,1332.00
2023-05-11T05:29:21.661Z,1376.00
2023-05-11T05:30:21.655Z,1428.00
2023-05-11T05:31:21.725Z,1472.00
2023-05-11T05:32:21.616Z,1520.00
2023-05-11T05:33:21.604Z,1536.00
2023-05-11T05:34:21.632Z,1520.00
2023-05-11T05:35:21.576Z,1528.00
2023-05-11T05:36:21.555Z,1572.00
2023-05-11T05:37:21.548Z,1624.00
2023-05-11T05:38:21.538Z,1692.00
2023-05-11T05:39:21.547Z,1764.00
2023-05-11T05:40:21.680Z,1740.00
2023-05-11T05:41:21.512Z,1668.00
2023-05-11T05:42:21.496Z,1672.00
2023-05-11T05:43:24.492Z,1660.00
2023-05-11T05:44:24.447Z,1668.00
2023-05-11T05:45:21.445Z,1700.00
2023-05-11T05:46:21.479Z,1784.00
2023-05-11T05:47:21.484Z,1872.00
2023-05-11T05:48:21.396Z,1968.00
2023-05-11T05:49:21.373Z,2084.00
2023-05-11T05:50:21.363Z,2192.00
2023-05-11T05:51:21.366Z,2264.00
2023-05-11T05:52:21.348Z,2328.00
2023-05-11T05:53:21.349Z,2348.00
2023-05-11T05:54:21.317Z,2316.00
2023-05-11T05:55:21.310Z,2256.00
2023-05-11T05:56:21.276Z,2176.00
2023-05-11T05:57:21.276Z,2076.00
2023-05-11T05:58:21.324Z,1976.00
2023-05-11T05:59:21.238Z,1896.00
2023-05-11T06:00:21.314Z,1828.00
2023-05-11T06:01:21.208Z,1728.00
2023-05-11T06:02:21.261Z,1756.00
2023-05-11T06:03:25.740Z,1800.00
2023-05-11T06:04:24.264Z,1824.00
2023-05-11T06:05:21.156Z,1840.00
2023-05-11T06:06:21.145Z,1812.00
2023-05-11T06:07:21.125Z,1756.00
2023-05-11T06:08:21.136Z,1664.00
2023-05-11T06:09:21.138Z,1584.00
2023-05-11T06:10:21.085Z,1572.00
2023-05-11T06:11:21.062Z,1600.00
2023-05-11T06:12:21.053Z,1664.00
2023-05-11T06:13:21.045Z,1696.00
2023-05-11T06:14:21.058Z,1696.00
2023-05-11T06:15:21.008Z,1692.00
2023-05-11T06:16:21.017Z,1708.00
2023-05-11T06:17:20.976Z,1756.00
2023-05-11T06:18:21.022Z,1832.00
2023-05-11T06:19:20.984Z,1924.00
2023-05-11T06:20:21.008Z,1980.00
2023-05-11T06:21:20.960Z,2032.00
2023-05-11T06:22:20.919Z,2100.00
2023-05-11T06:23:23.889Z,2180.00
2023-05-11T06:24:23.895Z,2240.00
2023-05-11T06:25:20.864Z,2300.00
2023-05-11T06:26:20.884Z,2412.00
2023-05-11T06:27:20.849Z,2532.00
2023-05-11T06:28:20.838Z,2568.00
2023-05-11T06:29:20.855Z,2584.00
2023-05-11T06:30:20.939Z,2640.00
2023-05-11T06:31:20.845Z,2744.00
2023-05-11T06:32:20.850Z,2844.00
2023-05-11T06:33:20.769Z,2900.00
2023-05-11T06:34:20.774Z,2916.00
2023-05-11T06:35:20.732Z,2888.00
2023-05-11T06:36:20.757Z,2868.00
2023-05-11T06:37:20.732Z,2836.00
2023-05-11T06:38:20.710Z,2800.00
2023-05-11T06:39:20.671Z,2768.00
2023-05-11T06:40:20.786Z,2780.00
2023-05-11T06:41:20.673Z,2812.00
2023-05-11T06:42:20.662Z,2796.00
2023-05-11T06:43:23.619Z,2752.00
2023-05-11T06:44:23.629Z,2756.00
2023-05-11T06:45:20.624Z,2784.00
2023-05-11T06:46:20.615Z,2804.00
2023-05-11T06:47:20.632Z,2824.00
2023-05-11T06:48:20.588Z,2864.00
2023-05-11T06:49:20.543Z,2912.00
2023-05-11T06:50:21.866Z,2948.00
2023-05-11T06:51:20.510Z,2956.00
2023-05-11T06:52:20.492Z,2976.00
2023-05-11T06:53:20.529Z,3048.00
2023-05-11T06:54:20.484Z,3108.00
2023-05-11T06:55:20.497Z,3188.00
2023-05-11T06:56:20.462Z,3252.00
2023-05-11T06:57:20.466Z,3276.00
2023-05-11T06:58:20.649Z,3280.00
2023-05-11T06:59:20.408Z,3368.00
2023-05-11T07:00:20.517Z,3372.00
2023-05-11T07:01:20.415Z,3324.00
2023-05-11T07:02:20.366Z,3268.00
2023-05-11T07:03:23.392Z,3164.00
2023-05-11T07:04:23.379Z,3080.00
2023-05-11T07:05:20.330Z,3100.00
2023-05-11T07:06:20.305Z,3092.00
2023-05-11T07:07:20.307Z,3124.00
2023-05-11T07:08:20.316Z,3168.00
2023-05-11T07:09:20.306Z,3172.00
2023-05-11T07:10:20.490Z,3196.00
2023-05-11T07:11:20.251Z,3184.00
2023-05-11T07:12:20.224Z,3084.00
2023-05-11T07:13:20.215Z,2988.00
2023-05-11T07:14:20.232Z,2980.00
2023-05-11T07:15:20.187Z,2916.00
2023-05-11T07:16:20.213Z,2900.00
2023-05-11T07:17:20.200Z,2900.00
2023-05-11T07:18:20.248Z,2908.00
2023-05-11T07:19:20.168Z,2928.00
2023-05-11T07:20:20.434Z,2984.00
2023-05-11T07:21:20.127Z,3064.00
2023-05-11T07:22:20.190Z,2952.00
2023-05-11T07:23:23.101Z,2980.00
2023-05-11T07:24:23.078Z,3132.00
2023-05-11T07:25:20.052Z,3292.00
2023-05-11T07:26:20.071Z,3424.00
2023-05-11T07:27:20.031Z,3544.00
2023-05-11T07:28:20.025Z,3608.00
2023-05-11T07:29:19.992Z,3628.00
2023-05-11T07:30:20.455Z,3652.00
2023-05-11T07:31:20.028Z,3740.00
2023-05-11T07:32:19.959Z,3808.00
2023-05-11T07:33:19.943Z,3784.00
2023-05-11T07:34:19.923Z,3748.00
2023-05-11T07:35:21.126Z,3752.00
2023-05-11T07:36:19.897Z,3712.00
2023-05-11T07:37:19.904Z,3640.00
2023-05-11T07:38:19.876Z,3552.00
2023-05-11T07:39:19.855Z,3472.00
2023-05-11T07:40:20.081Z,3444.00
2023-05-11T07:41:19.831Z,3480.00
2023-05-11T07:42:19.870Z,3552.00
2023-05-11T07:43:22.808Z,3572.00
2023-05-11T07:44:22.804Z,3604.00
2023-05-11T07:45:19.778Z,3660.00
2023-05-11T07:46:19.816Z,3796.00
2023-05-11T07:47:19.803Z,3880.00
2023-05-11T07:48:19.770Z,3896.00
2023-05-11T07:49:25.498Z,3928.00
2023-05-11T07:50:23.935Z,4000.00
2023-05-11T07:51:19.699Z,4020.00
2023-05-11T07:52:19.673Z,4056.00
2023-05-11T07:53:19.665Z,4136.00
2023-05-11T07:54:21.634Z,4240.00
2023-05-11T07:55:19.860Z,4408.00
2023-05-11T07:56:19.658Z,4608.00
2023-05-11T07:57:19.611Z,4752.00
2023-05-11T07:58:19.620Z,4868.00
2023-05-11T07:59:19.586Z,4944.00
2023-05-11T08:00:19.843Z,4924.00
2023-05-11T08:01:19.605Z,4872.00
2023-05-11T08:02:19.605Z,4868.00
2023-05-11T08:03:22.545Z,4912.00
2023-05-11T08:04:22.514Z,4996.00
2023-05-11T08:05:19.931Z,5056.00
2023-05-11T08:06:19.529Z,5064.00
2023-05-11T08:07:19.485Z,4980.00
2023-05-11T08:08:19.476Z,5052.00
2023-05-11T08:09:19.462Z,5132.00
2023-05-11T08:10:19.428Z,5124.00
2023-05-11T08:11:19.420Z,5000.00
2023-05-11T08:12:19.460Z,4928.00
2023-05-11T08:13:20.139Z,4896.00
2023-05-11T08:14:19.373Z,4924.00
2023-05-11T08:15:19.564Z,4920.00
2023-05-11T08:16:19.397Z,4896.00
2023-05-11T08:17:19.330Z,4764.00
2023-05-11T08:18:19.374Z,4560.00
2023-05-11T08:19:19.303Z,4308.00
2023-05-11T08:20:19.290Z,4112.00
2023-05-11T08:21:19.272Z,4032.00
2023-05-11T08:22:19.288Z,4016.00
2023-05-11T08:23:22.249Z,4056.00
2023-05-11T08:24:22.247Z,4144.00
2023-05-11T08:25:19.459Z,4260.00
2023-05-11T08:26:19.205Z,4376.00
2023-05-11T08:27:19.217Z,4420.00
2023-05-11T08:28:19.195Z,4468.00
2023-05-11T08:29:19.220Z,4556.00
2023-05-11T08:30:19.179Z,4620.00
2023-05-11T08:31:19.189Z,4708.00
2023-05-11T08:32:19.213Z,4820.00
2023-05-11T08:33:35.988Z,4868.00
2023-05-11T08:34:20.555Z,4740.00
2023-05-11T08:35:19.395Z,4720.00
2023-05-11T08:36:19.079Z,4712.00
2023-05-11T08:37:19.061Z,4724.00
2023-05-11T08:38:19.066Z,4760.00
2023-05-11T08:39:28.511Z,4608.00
2023-05-11T08:40:20.044Z,4420.00
2023-05-11T08:41:19.001Z,4284.00
2023-05-11T08:42:18.986Z,4140.00
2023-05-11T08:43:21.971Z,4060.00
2023-05-11T08:44:22.005Z,3996.00
2023-05-11T08:45:19.130Z,3932.00
2023-05-11T08:46:18.963Z,3904.00
2023-05-11T08:47:23.215Z,3932.00
2023-05-11T08:48:18.930Z,3952.00
2023-05-11T08:49:18.943Z,3948.00
2023-05-11T08:50:18.899Z,3956.00
2023-05-11T08:51:18.856Z,3932.00
2023-05-11T08:52:18.855Z,3920.00
2023-05-11T08:53:18.875Z,3880.00
2023-05-11T08:54:18.820Z,3816.00
2023-05-11T08:55:19.075Z,3740.00
2023-05-11T08:56:18.805Z,3768.00
2023-05-11T08:57:18.790Z,3820.00
2023-05-11T08:58:18.773Z,3876.00
2023-05-11T08:59:18.789Z,3992.00
2023-05-11T09:00:18.756Z,4140.00
2023-05-11T09:01:18.744Z,4296.00
2023-05-11T09:02:18.760Z,4476.00
2023-05-11T09:03:21.696Z,4736.00
2023-05-11T09:04:21.731Z,5020.00
2023-05-11T09:05:18.802Z,5144.00
2023-05-11T09:06:18.652Z,5076.00
2023-05-11T09:07:18.835Z,4968.00
2023-05-11T09:08:18.678Z,4880.00
2023-05-11T09:09:18.779Z,4732.00
2023-05-11T09:10:18.748Z,4668.00
2023-05-11T09:11:18.584Z,4600.00
2023-05-11T09:12:18.596Z,4592.00
2023-05-11T09:13:18.561Z,4688.00
2023-05-11T09:14:18.543Z,4784.00
2023-05-11T09:15:18.787Z,4844.00
2023-05-11T09:16:33.020Z,4916.00
2023-05-11T09:17:19.507Z,5020.00
2023-05-11T09:18:18.495Z,5056.00
2023-05-11T09:19:18.551Z,4888.00
2023-05-11T09:20:18.662Z,4760.00
2023-05-11T09:21:18.445Z,4696.00
2023-05-11T09:22:18.440Z,4640.00
2023-05-11T09:23:21.453Z,4556.00
2023-05-11T09:24:21.547Z,4536.00
2023-05-11T09:25:18.726Z,4600.00
2023-05-11T09:26:18.389Z,4676.00
2023-05-11T09:27:21.154Z,4760.00
2023-05-11T09:28:25.430Z,4852.00
2023-05-11T09:29:19.356Z,4888.00
2023-05-11T09:31:18.442Z,4948.00
2023-05-11T09:32:18.305Z,4908.00
2023-05-11T09:33:18.279Z,4800.00
2023-05-11T09:34:18.273Z,4692.00
2023-05-11T09:35:18.489Z,4612.00
2023-05-11T09:36:18.248Z,4580.00
2023-05-11T09:37:18.251Z,4620.00
2023-05-11T09:38:18.216Z,4708.00
2023-05-11T09:41:19.207Z,4756.00
2023-05-11T09:42:18.214Z,4688.00
2023-05-11T09:43:21.169Z,4600.00
2023-05-11T09:44:21.186Z,4516.00
2023-05-11T09:45:18.359Z,4464.00
2023-05-11T09:46:18.211Z,4400.00
2023-05-11T09:47:18.228Z,4412.00
2023-05-11T09:48:18.094Z,4428.00
2023-05-11T09:49:18.061Z,4536.00
2023-05-11T09:50:18.736Z,4708.00
2023-05-11T09:51:19.094Z,4904.00
2023-05-11T09:52:18.022Z,5096.00
2023-05-11T09:53:18.064Z,5256.00
2023-05-11T09:54:18.008Z,5408.00
2023-05-11T09:55:18.155Z,5460.00
2023-05-11T09:56:17.973Z,5428.00
2023-05-11T09:57:18.023Z,5432.00
2023-05-11T09:58:17.935Z,5524.00
2023-05-11T09:59:17.930Z,5628.00
2023-05-11T10:00:17.955Z,5640.00
2023-05-11T10:01:17.998Z,5640.00
2023-05-11T10:02:18.020Z,5552.00
2023-05-11T10:03:21.118Z,5344.00
2023-05-11T10:04:23.510Z,5032.00
2023-05-11T10:05:18.042Z,4880.00
2023-05-11T10:06:20.051Z,4896.00
2023-05-11T10:07:17.820Z,5000.00
2023-05-11T10:08:17.867Z,5208.00
2023-05-11T10:09:17.776Z,5548.00
2023-05-11T10:10:17.842Z,5960.00
2023-05-11T10:11:17.758Z,6100.00
2023-05-11T10:12:17.750Z,6036.00
2023-05-11T10:13:17.737Z,6092.00
2023-05-11T10:14:17.860Z,6008.00
2023-05-11T10:15:17.853Z,5884.00
2023-05-11T10:16:17.736Z,5832.00
2023-05-11T10:17:17.683Z,5932.00
2023-05-11T10:18:20.122Z,6048.00
2023-05-11T10:19:17.683Z,5896.00
2023-05-11T10:20:17.928Z,5668.00
2023-05-11T10:21:17.662Z,5548.00
2023-05-11T10:22:17.651Z,5488.00
2023-05-11T10:23:20.597Z,5524.00
2023-05-11T10:24:20.785Z,5524.00
2023-05-11T10:25:17.564Z,5516.00
2023-05-11T10:26:17.587Z,5544.00
2023-05-11T10:27:17.547Z,5664.00
2023-05-11T10:28:17.511Z,5624.00
2023-05-11T10:29:17.520Z,5452.00
2023-05-11T10:30:17.829Z,5340.00
2023-05-11T10:31:17.506Z,5340.00
2023-05-11T10:32:17.485Z,5472.00
2023-05-11T10:33:17.444Z,5660.00
2023-05-11T10:34:17.460Z,5820.00
2023-05-11T10:35:17.459Z,5936.00
2023-05-11T10:36:19.337Z,6200.00
2023-05-11T10:37:17.418Z,6528.00
2023-05-11T10:38:17.369Z,6664.00
2023-05-11T10:39:17.383Z,6588.00
2023-05-11T10:40:17.575Z,6584.00
2023-05-11T10:41:17.344Z,6696.00
2023-05-11T10:42:17.315Z,6672.00
2023-05-11T10:43:20.313Z,6496.00
2023-05-11T10:44:20.302Z,6276.00
2023-05-11T10:45:17.327Z,6252.00
2023-05-11T10:46:17.319Z,6244.00
2023-05-11T10:47:17.268Z,6168.00
2023-05-11T10:48:17.245Z,6036.00
2023-05-11T10:49:17.232Z,5844.00
2023-05-11T10:50:17.493Z,5548.00
2023-05-11T10:51:17.240Z,5484.00
2023-05-11T10:52:17.169Z,5288.00
2023-05-11T10:53:17.158Z,5012.00
2023-05-11T10:54:17.147Z,4960.00
2023-05-11T10:55:17.361Z,4964.00
2023-05-11T10:56:17.126Z,4988.00
2023-05-11T10:57:17.141Z,4952.00
2023-05-11T10:58:17.122Z,4852.00
2023-05-11T10:59:17.085Z,4692.00
2023-05-11T11:00:17.260Z,4660.00
2023-05-11T11:01:17.165Z,4696.00
2023-05-11T11:02:17.070Z,4792.00
2023-05-11T11:03:20.051Z,4980.00
2023-05-11T11:04:20.053Z,5260.00
2023-05-11T11:05:17.285Z,5252.00
2023-05-11T11:06:17.006Z,4932.00
2023-05-11T11:07:16.968Z,4628.00
2023-05-11T11:08:16.981Z,4496.00
2023-05-11T11:09:16.944Z,4556.00
2023-05-11T11:10:17.162Z,4676.00
2023-05-11T11:11:16.917Z,4992.00
2023-05-11T11:12:16.918Z,5388.00
2023-05-11T11:13:16.939Z,5696.00
2023-05-11T11:14:16.931Z,5788.00
2023-05-11T11:15:17.015Z,5572.00
2023-05-11T11:16:16.915Z,5648.00
2023-05-11T11:17:17.647Z,6136.00
2023-05-11T11:18:16.862Z,6564.00
2023-05-11T11:19:16.813Z,6572.00
2023-05-11T11:20:16.789Z,6304.00
2023-05-11T11:21:16.784Z,5816.00
2023-05-11T11:22:16.757Z,5160.00
2023-05-11T11:23:19.776Z,4800.00
2023-05-11T11:24:19.780Z,4520.00
2023-05-11T11:25:16.910Z,4236.00
2023-05-11T11:26:16.697Z,4076.00
2023-05-11T11:27:16.702Z,4068.00
2023-05-11T11:28:16.710Z,4232.00
2023-05-11T11:29:16.680Z,4328.00
2023-05-11T11:30:16.656Z,4304.00
2023-05-11T11:31:16.738Z,4404.00
2023-05-11T11:32:16.615Z,4688.00
2023-05-11T11:33:16.666Z,4912.00
2023-05-11T11:34:16.592Z,4660.00
2023-05-11T11:35:16.787Z,4468.00
2023-05-11T11:36:16.576Z,4564.00
2023-05-11T11:37:16.595Z,4776.00
2023-05-11T11:38:16.529Z,4880.00
2023-05-11T11:39:16.552Z,4880.00
2023-05-11T11:40:16.523Z,4800.00
2023-05-11T11:41:16.542Z,4988.00
2023-05-11T11:42:16.484Z,5788.00
2023-05-11T11:43:19.526Z,6608.00
2023-05-11T11:44:19.468Z,6808.00
2023-05-11T11:45:16.597Z,7168.00
2023-05-11T11:46:16.501Z,6912.00
2023-05-11T11:47:16.467Z,6280.00
2023-05-11T11:48:16.406Z,5764.00
2023-05-11T11:49:16.377Z,5192.00
2023-05-11T11:50:16.357Z,4760.00
2023-05-11T11:51:16.380Z,4420.00
2023-05-11T11:52:16.355Z,4484.00
2023-05-11T11:53:16.402Z,4956.00
2023-05-11T11:54:16.318Z,5684.00
2023-05-11T11:55:16.422Z,6072.00
2023-05-11T11:56:16.341Z,6376.00
2023-05-11T11:57:16.274Z,6236.00
2023-05-11T11:58:16.268Z,6104.00
2023-05-11T11:59:16.268Z,5960.00
2023-05-11T12:00:16.242Z,5812.00
2023-05-11T12:01:16.216Z,5268.00
2023-05-11T12:02:16.233Z,4572.00
2023-05-11T12:03:19.420Z,4140.00
2023-05-11T12:04:19.445Z,3888.00
2023-05-11T12:05:16.255Z,3656.00
2023-05-11T12:06:16.146Z,3444.00
2023-05-11T12:07:16.182Z,3416.00
2023-05-11T12:08:16.119Z,3620.00
2023-05-11T12:09:16.136Z,3960.00
2023-05-11T12:10:16.210Z,4356.00
2023-05-11T12:11:16.095Z,4896.00
2023-05-11T12:12:16.081Z,5388.00
2023-05-11T12:13:16.079Z,5820.00
2023-05-11T12:14:16.101Z,6024.00
2023-05-11T12:15:16.069Z,6144.00
2023-05-11T12:16:16.083Z,6156.00
2023-05-11T12:17:16.035Z,6008.00
2023-05-11T12:18:15.983Z,5740.00
2023-05-11T12:19:16.065Z,5520.00
2023-05-11T12:20:15.998Z,5380.00
2023-05-11T12:21:15.956Z,5312.00
2023-05-11T12:22:15.983Z,5548.00
2023-05-11T12:23:18.936Z,5936.00
2023-05-11T12:24:18.922Z,6200.00
2023-05-11T12:25:15.995Z,6252.00
2023-05-11T12:26:15.888Z,6224.00
2023-05-11T12:27:15.871Z,6176.00
2023-05-11T12:28:15.858Z,6104.00
2023-05-11T12:29:15.873Z,6096.00
2023-05-11T12:30:15.819Z,6124.00
2023-05-11T12:31:15.826Z,6064.00